Time;durP1;ratioP1;P1;durP2;ratioP2;P2;SDS_P1;SDS_P2;PMS_P1;PMS_P2;Temp;Humidity;BMP_temperature;BMP_pressure;BME280_temperature;BME280_humidity;BME280_pressure;Samples;Min_cycle;Max_cycle;Signal;HPM_P1;HPM_P2
2022/10/15 00:00:37;;;;;;;757.07;705.50;;;13.80;99.90;;;;;;5070280;28;20455;-84
2022/10/15 00:03:05;;;;;;;767.37;714.77;;;13.70;99.90;;;;;;5052296;28;20542;-84
2022/10/15 00:05:32;;;;;;;780.23;726.57;;;13.70;99.90;;;;;;5062583;22;21024;-82
2022/10/15 00:07:58;;;;;;;773.50;719.40;;;13.70;99.90;;;;;;5036931;28;20477;-83
2022/10/15 00:10:25;;;;;;;774.43;720.37;;;13.70;99.90;;;;;;5037150;28;20448;-82
2022/10/15 00:12:52;;;;;;;784.87;730.40;;;13.70;99.90;;;;;;5036556;28;20825;-82
2022/10/15 00:15:19;;;;;;;778.57;723.53;;;13.80;99.90;;;;;;5042457;28;20999;-82
2022/10/15 00:17:45;;;;;;;777.33;722.10;;;13.60;99.90;;;;;;5039046;28;20452;-82
2022/10/15 00:20:14;;;;;;;780.57;724.97;;;13.60;99.90;;;;;;5037528;28;20464;-83
2022/10/15 00:22:41;;;;;;;781.97;726.80;;;13.70;99.90;;;;;;5053022;28;20443;-82
2022/10/15 00:25:09;;;;;;;788.37;732.57;;;13.70;99.90;;;;;;5056264;28;20487;-82
2022/10/15 00:27:36;;;;;;;796.87;739.87;;;13.70;99.90;;;;;;5041695;28;20467;-82
2022/10/15 00:30:04;;;;;;;790.00;732.80;;;13.70;99.90;;;;;;5037109;28;20468;-82
2022/10/15 00:32:31;;;;;;;797.60;740.87;;;13.60;99.90;;;;;;5052464;28;20447;-82
2022/10/15 00:34:58;;;;;;;797.77;741.07;;;13.70;99.90;;;;;;5060047;28;20473;-82
2022/10/15 00:37:26;;;;;;;800.40;743.13;;;13.70;99.90;;;;;;5048805;28;20978;-82
2022/10/15 00:39:53;;;;;;;787.93;731.30;;;13.50;99.90;;;;;;5041247;28;20456;-82
2022/10/15 00:42:20;;;;;;;786.77;729.20;;;13.50;99.90;;;;;;5051197;28;20454;-82
2022/10/15 00:44:54;;;;;;;784.07;725.67;;;13.40;99.90;;;;;;5059844;28;20451;-82
2022/10/15 00:47:26;;;;;;;780.80;721.60;;;13.40;99.90;;;;;;5050899;28;20534;-82
2022/10/15 00:49:59;;;;;;;776.27;716.70;;;13.30;99.90;;;;;;5040872;28;20455;-82
2022/10/15 00:52:34;;;;;;;779.50;718.40;;;13.10;99.90;;;;;;5050804;28;20443;-82
2022/10/15 00:55:05;;;;;;;783.77;723.37;;;13.10;99.90;;;;;;5059923;28;20463;-82
2022/10/15 00:57:33;;;;;;;773.97;712.93;;;12.90;99.90;;;;;;5050513;28;20448;-82
2022/10/15 01:00:04;;;;;;;768.77;704.40;;;12.70;99.90;;;;;;5040435;28;20447;-83
2022/10/15 01:02:34;;;;;;;777.70;710.87;;;12.60;99.90;;;;;;5049430;28;20450;-82
2022/10/15 01:05:01;;;;;;;776.50;706.47;;;12.50;99.90;;;;;;5059210;28;21014;-82
2022/10/15 01:07:29;;;;;;;769.40;697.40;;;12.40;99.90;;;;;;5051287;28;20455;-82
2022/10/15 01:09:56;;;;;;;748.30;674.00;;;12.40;99.90;;;;;;5040523;28;20451;-83
2022/10/15 01:12:32;;;;;;;762.13;686.90;;;12.30;99.90;;;;;;5046922;28;20518;-82
2022/10/15 01:15:07;;;;;;;760.83;684.37;;;12.30;99.90;;;;;;5059884;28;20849;-82
2022/10/15 01:17:41;;;;;;;752.07;675.13;;;12.30;99.90;;;;;;5058403;28;20443;-82
2022/10/15 01:20:42;;;;;;;750.07;673.00;;;12.30;99.90;;;;;;5060399;28;20525;-82
2022/10/15 01:23:35;;;;;;;747.37;670.20;;;12.30;99.90;;;;;;5020548;28;20448;-82
2022/10/15 01:26:18;;;;;;;752.43;674.37;;;12.40;99.90;;;;;;5023648;28;20856;-82
2022/10/15 01:28:53;;;;;;;744.60;666.23;;;12.40;99.90;;;;;;5040285;28;20459;-82
2022/10/15 01:31:27;;;;;;;730.13;651.40;;;12.50;99.90;;;;;;5044050;28;20455;-82
2022/10/15 01:34:02;;;;;;;732.67;653.60;;;12.70;99.90;;;;;;5059448;28;20447;-82
2022/10/15 01:36:37;;;;;;;750.97;671.93;;;12.80;99.90;;;;;;5054443;28;20464;-82
2022/10/15 01:39:10;;;;;;;736.73;657.90;;;12.80;99.90;;;;;;5039963;28;20455;-82
2022/10/15 01:41:42;;;;;;;744.97;666.20;;;12.90;99.90;;;;;;5045056;28;20451;-82
2022/10/15 01:44:12;;;;;;;748.40;670.47;;;13.00;99.90;;;;;;5059344;28;20459;-82
2022/10/15 01:46:45;;;;;;;748.77;671.53;;;13.10;99.90;;;;;;5054078;28;20480;-82
2022/10/15 01:49:15;;;;;;;757.20;680.57;;;13.20;99.90;;;;;;5039661;28;20835;-82
2022/10/15 01:51:44;;;;;;;770.73;695.67;;;13.20;99.90;;;;;;5044694;28;20831;-82
2022/10/15 01:54:16;;;;;;;780.10;706.57;;;13.20;99.90;;;;;;5059427;28;20459;-82
2022/10/15 01:56:48;;;;;;;783.67;712.23;;;13.20;99.90;;;;;;5055377;28;20465;-82
2022/10/15 01:59:16;;;;;;;781.43;711.27;;;13.20;99.90;;;;;;5039846;28;20527;-82
2022/10/15 02:01:45;;;;;;;793.87;725.80;;;13.20;99.90;;;;;;5042845;28;20454;-83
2022/10/15 02:04:20;;;;;;;800.97;733.87;;;13.10;99.90;;;;;;5059491;28;20478;-80
2022/10/15 02:06:51;;;;;;;789.00;722.83;;;13.20;99.90;;;;;;5047888;28;20525;-83
2022/10/15 02:09:29;;;;;;;787.97;722.17;;;13.20;99.90;;;;;;5039447;28;20453;-82
2022/10/15 02:12:05;;;;;;;811.07;745.77;;;13.20;99.90;;;;;;5050093;28;20462;-82
2022/10/15 02:14:37;;;;;;;812.97;747.67;;;13.10;99.90;;;;;;5059084;28;20466;-82
2022/10/15 02:17:10;;;;;;;806.77;741.60;;;13.20;99.90;;;;;;5047161;28;20448;-82
2022/10/15 02:19:43;;;;;;;803.53;738.77;;;13.20;99.90;;;;;;5039714;28;20816;-82
2022/10/15 02:22:17;;;;;;;800.93;736.37;;;13.20;99.90;;;;;;5051039;28;20456;-82
2022/10/15 02:24:49;;;;;;;807.60;743.40;;;13.20;99.90;;;;;;5058313;28;20963;-82
2022/10/15 02:27:18;;;;;;;799.23;735.13;;;13.10;99.90;;;;;;5046782;28;20471;-83
2022/10/15 02:29:46;;;;;;;790.90;727.50;;;13.20;99.90;;;;;;5039576;28;20456;-82
2022/10/15 02:32:16;;;;;;;794.47;731.07;;;13.20;99.90;;;;;;5051264;28;20868;-82
2022/10/15 02:34:46;;;;;;;799.37;736.37;;;13.20;99.90;;;;;;5067972;28;20444;-81
2022/10/15 02:37:13;;;;;;;784.70;722.10;;;13.20;99.90;;;;;;5063987;28;20455;-83
2022/10/15 02:39:40;;;;;;;790.87;728.40;;;13.30;99.90;;;;;;5055932;28;20736;-82
2022/10/15 02:42:07;;;;;;;799.60;737.30;;;13.20;99.90;;;;;;5064399;28;20447;-82
2022/10/15 02:44:33;;;;;;;800.30;738.50;;;13.20;99.90;;;;;;5073622;28;20459;-81
2022/10/15 02:47:00;;;;;;;804.13;743.03;;;13.30;99.90;;;;;;5065371;28;20464;-82
2022/10/15 02:49:28;;;;;;;789.90;729.73;;;13.30;99.90;;;;;;5053022;28;20448;-82
2022/10/15 02:51:55;;;;;;;793.93;733.37;;;13.30;99.90;;;;;;5053911;28;20459;-83
2022/10/15 02:54:22;;;;;;;801.37;740.87;;;13.30;99.90;;;;;;5057861;28;20493;-82
2022/10/15 02:56:48;;;;;;;784.43;724.47;;;13.30;99.90;;;;;;5046500;28;20814;-82
2022/10/15 02:59:17;;;;;;;773.77;713.40;;;13.30;99.90;;;;;;5038474;28;20456;-83
2022/10/15 03:01:46;;;;;;;781.37;720.60;;;13.30;99.90;;;;;;5048085;28;20452;-83
2022/10/15 03:04:12;;;;;;;781.17;720.40;;;13.30;99.90;;;;;;5058503;28;20447;-80
2022/10/15 03:06:40;;;;;;;789.53;727.87;;;13.30;99.90;;;;;;5047783;28;20487;-83
2022/10/15 03:09:07;;;;;;;784.37;722.90;;;13.30;99.90;;;;;;5038539;28;20972;-82
2022/10/15 03:11:34;;;;;;;803.53;741.27;;;13.30;99.90;;;;;;5042248;28;20455;-83
2022/10/15 03:14:01;;;;;;;804.87;742.83;;;13.20;99.90;;;;;;5027951;28;20838;-83
2022/10/15 03:16:27;;;;;;;801.13;739.90;;;13.30;99.90;;;;;;5020899;28;20477;-82
2022/10/15 03:18:54;;;;;;;809.90;749.83;;;13.30;99.90;;;;;;5038171;28;20456;-82
2022/10/15 03:21:21;;;;;;;806.30;748.40;;;13.40;99.90;;;;;;5038069;28;20452;-82
2022/10/15 03:23:49;;;;;;;799.40;741.60;;;13.40;99.90;;;;;;5038034;28;20832;-82
2022/10/15 03:26:16;;;;;;;799.33;741.60;;;13.30;99.90;;;;;;5036868;28;20507;-83
2022/10/15 03:28:42;;;;;;;798.50;740.17;;;13.30;99.90;;;;;;5037697;28;20459;-82
2022/10/15 03:31:09;;;;;;;796.23;737.03;;;13.30;99.90;;;;;;5038672;28;20467;-82
2022/10/15 03:33:36;;;;;;;800.57;741.20;;;13.30;99.90;;;;;;5057128;28;20470;-82
2022/10/15 03:36:03;;;;;;;792.13;732.73;;;13.40;99.90;;;;;;5057248;28;20475;-82
2022/10/15 03:38:29;;;;;;;796.80;736.57;;;13.30;99.90;;;;;;5018222;28;20464;-82
2022/10/15 03:40:57;;;;;;;792.77;732.87;;;13.20;99.90;;;;;;5017601;28;20459;-82
2022/10/15 03:43:25;;;;;;;797.07;736.57;;;13.30;99.90;;;;;;5055879;28;20459;-82
2022/10/15 03:45:52;;;;;;;797.20;736.47;;;13.30;99.90;;;;;;5052113;28;20472;-82
2022/10/15 03:48:19;;;;;;;803.40;742.93;;;13.30;99.90;;;;;;5037759;28;20456;-82
2022/10/15 03:50:46;;;;;;;800.97;740.10;;;13.20;99.90;;;;;;5039713;28;20486;-82
2022/10/15 03:53:13;;;;;;;810.67;749.30;;;13.30;99.90;;;;;;5057256;28;20834;-83
2022/10/15 03:55:40;;;;;;;805.67;744.53;;;13.30;99.90;;;;;;5054340;28;20479;-83
2022/10/15 03:58:08;;;;;;;802.87;741.87;;;13.30;99.90;;;;;;5036927;28;20455;-82
2022/10/15 04:00:35;;;;;;;791.23;729.90;;;13.20;99.90;;;;;;5037416;28;20461;-82
2022/10/15 04:03:01;;;;;;;797.57;735.83;;;13.30;99.90;;;;;;5017285;28;20480;-82
2022/10/15 04:05:28;;;;;;;791.33;730.00;;;13.30;99.90;;;;;;5017076;28;20838;-82
2022/10/15 04:07:57;;;;;;;789.73;728.60;;;13.30;99.90;;;;;;5054282;28;20475;-83
2022/10/15 04:10:23;;;;;;;787.20;726.30;;;13.30;99.90;;;;;;5057026;28;20473;-82
2022/10/15 04:12:50;;;;;;;791.03;730.00;;;13.30;99.90;;;;;;5039669;28;20452;-82
2022/10/15 04:15:18;;;;;;;795.60;735.03;;;13.40;99.90;;;;;;5036774;28;20475;-82
2022/10/15 04:17:45;;;;;;;794.70;734.80;;;13.40;99.90;;;;;;5053622;28;20447;-82
2022/10/15 04:20:12;;;;;;;798.57;738.70;;;13.50;99.90;;;;;;5057256;28;20455;-83
2022/10/15 04:22:38;;;;;;;807.90;749.37;;;13.40;99.90;;;;;;5042364;28;20448;-82
2022/10/15 04:25:06;;;;;;;804.80;747.80;;;13.50;99.90;;;;;;5036729;28;20536;-82
2022/10/15 04:27:33;;;;;;;795.47;739.77;;;13.50;99.90;;;;;;5050485;28;20479;-82
2022/10/15 04:30:00;;;;;;;806.10;750.73;;;13.50;99.90;;;;;;5057025;28;20444;-83
2022/10/15 04:32:28;;;;;;;807.40;752.90;;;13.50;99.90;;;;;;5045073;28;20452;-82
2022/10/15 04:34:55;;;;;;;812.47;758.00;;;13.60;99.90;;;;;;5036723;28;20475;-82
2022/10/15 04:37:21;;;;;;;802.27;748.87;;;13.60;99.90;;;;;;5053898;28;20521;-82
2022/10/15 04:39:48;;;;;;;795.13;741.27;;;13.60;99.90;;;;;;5052150;28;20472;-82
2022/10/15 04:42:15;;;;;;;804.87;751.17;;;13.50;99.90;;;;;;5043563;28;20459;-82
2022/10/15 04:44:41;;;;;;;797.87;744.40;;;13.60;99.90;;;;;;5039179;28;20456;-82
2022/10/15 04:47:08;;;;;;;783.43;730.37;;;13.50;99.90;;;;;;5051919;28;20467;-83
2022/10/15 04:49:36;;;;;;;777.30;724.63;;;13.50;99.90;;;;;;5049486;28;20456;-83
2022/10/15 04:52:03;;;;;;;784.77;731.30;;;13.50;99.90;;;;;;5050583;28;20742;-82
2022/10/15 04:54:30;;;;;;;779.47;725.50;;;13.50;99.90;;;;;;5039504;28;20941;-82
2022/10/15 04:56:56;;;;;;;777.63;722.90;;;13.50;99.90;;;;;;5040266;28;20476;-82
2022/10/15 04:59:23;;;;;;;789.10;732.83;;;13.40;99.90;;;;;;5037435;28;20448;-83
2022/10/15 05:01:50;;;;;;;788.40;730.87;;;13.40;99.90;;;;;;5034077;28;20448;-83
2022/10/15 05:04:17;;;;;;;787.50;729.57;;;13.30;99.90;;;;;;5036203;28;20459;-82
2022/10/15 05:06:45;;;;;;;788.47;729.57;;;13.30;99.90;;;;;;5048757;28;20490;-80
2022/10/15 05:09:12;;;;;;;793.47;734.40;;;13.30;99.90;;;;;;5036158;28;20942;-83
2022/10/15 05:11:39;;;;;;;785.40;725.67;;;13.30;99.90;;;;;;5018184;28;20457;-83
2022/10/15 05:14:06;;;;;;;792.83;732.47;;;13.40;99.90;;;;;;5038379;28;20448;-83
2022/10/15 05:16:33;;;;;;;789.70;728.60;;;13.40;99.90;;;;;;5015754;28;20487;-83
2022/10/15 05:19:01;;;;;;;784.40;723.00;;;13.30;99.90;;;;;;5028208;28;20459;-83
2022/10/15 05:21:30;;;;;;;795.33;733.23;;;13.40;99.90;;;;;;5041934;28;20456;-83
2022/10/15 05:23:58;;;;;;;795.37;733.60;;;13.50;99.90;;;;;;5042453;28;20460;-83
2022/10/15 05:26:27;;;;;;;808.40;746.77;;;13.50;99.90;;;;;;5042105;28;20483;-83
2022/10/15 05:28:55;;;;;;;806.97;746.37;;;13.50;99.90;;;;;;5042791;28;20448;-83
2022/10/15 05:31:23;;;;;;;803.07;744.37;;;13.60;99.90;;;;;;5041058;28;20964;-83
2022/10/15 05:33:52;;;;;;;803.03;744.57;;;13.60;99.90;;;;;;5040961;28;20458;-83
2022/10/15 05:36:22;;;;;;;815.97;758.00;;;13.60;99.90;;;;;;5041629;28;20476;-83
2022/10/15 05:38:50;;;;;;;811.87;754.60;;;13.60;99.90;;;;;;5042861;28;20448;-82
2022/10/15 05:41:19;;;;;;;816.60;759.20;;;13.60;99.90;;;;;;5041110;28;20448;-82
2022/10/15 05:43:46;;;;;;;817.17;759.77;;;13.50;99.90;;;;;;5041763;28;20467;-82
2022/10/15 05:46:13;;;;;;;817.13;760.57;;;13.60;99.90;;;;;;5041069;28;21008;-83
2022/10/15 05:48:40;;;;;;;821.90;765.10;;;13.40;99.90;;;;;;5040307;28;20468;-82
2022/10/15 05:51:10;;;;;;;816.03;759.13;;;13.30;99.90;;;;;;5056449;28;20451;-81
2022/10/15 05:53:37;;;;;;;813.93;755.30;;;13.20;99.90;;;;;;5043670;28;20475;-81
2022/10/15 05:56:05;;;;;;;815.47;755.70;;;13.20;99.90;;;;;;5051583;28;20472;-82
2022/10/15 05:58:34;;;;;;;817.80;755.90;;;13.10;99.90;;;;;;5051906;28;20447;-82
2022/10/15 06:01:02;;;;;;;821.70;756.70;;;13.10;99.90;;;;;;5045970;28;20937;-82
2022/10/15 06:03:29;;;;;;;819.70;752.20;;;13.00;99.90;;;;;;5052737;28;20467;-81
2022/10/15 06:05:56;;;;;;;807.27;740.40;;;13.00;99.90;;;;;;5061117;22;20505;-84
2022/10/15 06:08:23;;;;;;;808.33;739.70;;;12.90;99.90;;;;;;5033838;28;20472;-83
2022/10/15 06:10:50;;;;;;;804.47;735.70;;;12.90;99.90;;;;;;5034041;28;20964;-83
2022/10/15 06:13:17;;;;;;;805.43;734.67;;;12.90;99.90;;;;;;5018030;28;20452;-83
2022/10/15 06:15:45;;;;;;;802.70;731.63;;;13.00;99.90;;;;;;5037897;28;20478;-83
2022/10/15 06:18:15;;;;;;;804.30;733.63;;;13.00;99.90;;;;;;5046039;28;20444;-84
2022/10/15 06:20:42;;;;;;;801.73;731.73;;;13.10;99.90;;;;;;5036295;28;20452;-84
2022/10/15 06:23:09;;;;;;;797.33;728.53;;;13.10;99.90;;;;;;5035081;28;20456;-84
2022/10/15 06:25:36;;;;;;;813.73;745.00;;;13.20;99.90;;;;;;5034147;28;20468;-84
2022/10/15 06:28:03;;;;;;;808.67;742.20;;;13.20;99.90;;;;;;5044253;28;20476;-84
2022/10/15 06:30:30;;;;;;;818.10;752.37;;;13.40;99.90;;;;;;5045899;28;20452;-84
2022/10/15 06:32:58;;;;;;;805.60;743.73;;;13.50;99.90;;;;;;5042238;28;20451;-86
2022/10/15 06:35:29;;;;;;;802.33;742.57;;;13.50;99.90;;;;;;5043992;28;20838;-84
2022/10/15 06:37:56;;;;;;;804.70;746.60;;;13.60;99.90;;;;;;5046312;28;20487;-84
2022/10/15 06:40:23;;;;;;;789.30;734.37;;;13.70;99.90;;;;;;5051450;28;20463;-84
2022/10/15 06:42:49;;;;;;;783.50;731.77;;;13.80;99.90;;;;;;5038589;28;20458;-84
2022/10/15 06:45:16;;;;;;;778.30;728.73;;;13.90;99.90;;;;;;5051099;28;20470;-83
2022/10/15 06:47:44;;;;;;;732.33;689.70;;;13.90;99.90;;;;;;5041782;28;20472;-86
2022/10/15 06:50:13;;;;;;;706.43;666.43;;;13.90;99.90;;;;;;5047251;28;20462;-84
2022/10/15 06:52:39;;;;;;;698.47;658.80;;;13.90;99.90;;;;;;5044240;28;20449;-83
2022/10/15 06:55:07;;;;;;;707.73;667.23;;;14.00;99.90;;;;;;5036437;28;20463;-83
2022/10/15 06:57:34;;;;;;;712.47;671.17;;;14.10;99.90;;;;;;5048964;28;20453;-83
2022/10/15 07:00:00;;;;;;;703.53;663.50;;;14.10;99.90;;;;;;5033395;28;20463;-83
2022/10/15 07:02:27;;;;;;;684.60;647.47;;;14.10;99.90;;;;;;5046412;28;20452;-84
2022/10/15 07:04:54;;;;;;;701.17;662.10;;;14.00;99.90;;;;;;5051943;28;20475;-84
2022/10/15 07:07:22;;;;;;;691.57;653.83;;;14.00;99.90;;;;;;5034243;28;20486;-85
2022/10/15 07:09:52;;;;;;;698.70;660.17;;;14.00;99.90;;;;;;5051475;28;20951;-84
2022/10/15 07:12:20;;;;;;;701.83;662.43;;;14.00;99.90;;;;;;5049253;28;20460;-84
2022/10/15 07:14:48;;;;;;;677.37;641.47;;;14.10;99.90;;;;;;5023924;28;20808;-84
2022/10/15 07:17:14;;;;;;;697.47;658.67;;;14.20;99.90;;;;;;5012381;28;20482;-86
2022/10/15 07:19:41;;;;;;;664.57;629.30;;;14.20;99.90;;;;;;5013052;28;20857;-85
2022/10/15 07:22:08;;;;;;;663.53;629.47;;;14.20;99.90;;;;;;5047738;28;20455;-83
2022/10/15 07:24:36;;;;;;;663.17;628.17;;;14.20;99.90;;;;;;5033196;28;20867;-84
2022/10/15 07:27:03;;;;;;;677.77;641.90;;;14.30;99.90;;;;;;5036881;28;21018;-85
2022/10/15 07:29:30;;;;;;;670.70;635.10;;;14.30;99.90;;;;;;5050180;28;20466;-86
2022/10/15 07:31:57;;;;;;;623.13;593.00;;;14.40;99.90;;;;;;5033992;28;20449;-84
2022/10/15 07:34:23;;;;;;;614.83;584.70;;;14.40;99.90;;;;;;5032044;28;20460;-85
2022/10/15 07:36:50;;;;;;;568.10;542.50;;;14.60;99.90;;;;;;5045318;28;20838;-84
2022/10/15 07:39:18;;;;;;;552.83;528.87;;;14.60;99.90;;;;;;5048281;28;20444;-84
2022/10/15 07:41:46;;;;;;;573.17;548.30;;;14.70;99.90;;;;;;5049749;28;20944;-85
2022/10/15 07:44:13;;;;;;;544.30;521.63;;;14.70;99.90;;;;;;5037411;28;20481;-83
2022/10/15 07:46:39;;;;;;;505.37;485.37;;;14.80;99.90;;;;;;5051474;28;20499;-85
2022/10/15 07:49:06;;;;;;;553.37;530.03;;;14.90;99.90;;;;;;5034537;28;20487;-84
2022/10/15 07:51:33;;;;;;;522.27;501.67;;;15.00;99.90;;;;;;5047802;28;20865;-84
2022/10/15 07:53:59;;;;;;;499.97;481.10;;;15.00;99.90;;;;;;5036334;28;20454;-84
2022/10/15 07:56:26;;;;;;;495.27;476.30;;;15.00;99.90;;;;;;5043915;28;20480;-84
2022/10/15 07:58:54;;;;;;;499.97;480.77;;;15.00;99.90;;;;;;5035513;28;20966;-86
2022/10/15 08:01:21;;;;;;;458.00;441.10;;;15.20;99.90;;;;;;5036857;28;20472;-86
2022/10/15 08:03:48;;;;;;;443.50;427.73;;;15.20;99.90;;;;;;5047590;28;20475;-86
2022/10/15 08:06:15;;;;;;;452.27;436.07;;;15.30;99.90;;;;;;5047596;28;20990;-84
2022/10/15 08:08:42;;;;;;;412.83;398.47;;;15.30;99.90;;;;;;5034904;28;20476;-86
2022/10/15 08:11:11;;;;;;;398.23;384.60;;;15.40;99.90;;;;;;5037376;28;20461;-85
2022/10/15 08:13:40;;;;;;;390.20;376.97;;;15.40;99.90;;;;;;5045555;28;20453;-85
2022/10/15 08:16:09;;;;;;;345.10;333.70;;;15.40;99.90;;;;;;5037718;28;20501;-85
2022/10/15 08:18:36;;;;;;;340.10;329.03;;;15.50;99.90;;;;;;5032315;28;20828;-86
2022/10/15 08:21:04;;;;;;;306.00;296.13;;;15.60;99.90;;;;;;5041119;28;20452;-86
2022/10/15 08:23:31;;;;;;;248.93;241.07;;;15.60;99.90;;;;;;5040816;28;20449;-84
2022/10/15 08:25:59;;;;;;;205.53;198.80;;;15.80;99.90;;;;;;5051015;28;20846;-85
2022/10/15 08:28:26;;;;;;;146.60;141.50;;;15.90;99.90;;;;;;5047373;28;20908;-86
2022/10/15 08:30:52;;;;;;;115.87;111.73;;;16.00;99.90;;;;;;5035983;28;20500;-85
2022/10/15 08:33:20;;;;;;;79.00;76.10;;;16.10;99.90;;;;;;5035115;28;20455;-85
2022/10/15 08:35:47;;;;;;;77.27;74.27;;;16.10;99.90;;;;;;5033466;28;20479;-85
2022/10/15 08:38:14;;;;;;;69.93;67.23;;;16.10;99.90;;;;;;5032080;28;20448;-85
2022/10/15 08:40:45;;;;;;;45.93;44.00;;;16.20;99.90;;;;;;5031965;28;20785;-86
2022/10/15 08:43:19;;;;;;;29.50;28.00;;;16.40;99.90;;;;;;5029389;28;20516;-84
2022/10/15 08:45:47;;;;;;;13.83;13.03;;;16.60;99.90;;;;;;5028486;28;20479;-85
2022/10/15 08:48:20;;;;;;;13.73;12.50;;;16.50;99.90;;;;;;5030613;28;20477;-84
2022/10/15 08:50:53;;;;;;;10.77;10.00;;;16.60;99.90;;;;;;5030819;28;20979;-84
2022/10/15 08:53:23;;;;;;;10.20;8.23;;;16.80;99.90;;;;;;5032400;28;20839;-84
2022/10/15 08:55:53;;;;;;;6.73;6.13;;;16.90;99.90;;;;;;5033668;28;20864;-85
2022/10/15 08:58:24;;;;;;;6.50;5.90;;;17.10;99.90;;;;;;5035356;28;20455;-85
2022/10/15 09:00:54;;;;;;;7.27;4.20;;;17.30;99.90;;;;;;5035999;28;20957;-85
2022/10/15 09:03:31;;;;;;;4.83;3.20;;;17.40;99.90;;;;;;5037212;28;20453;-85
2022/10/15 09:06:07;;;;;;;6.57;3.80;;;17.30;99.90;;;;;;5034543;28;20481;-85
2022/10/15 09:08:42;;;;;;;5.67;4.03;;;17.30;99.90;;;;;;5035501;28;20518;-85
2022/10/15 09:11:16;;;;;;;4.90;3.10;;;17.40;99.90;;;;;;5036749;28;20832;-86
2022/10/15 09:13:44;;;;;;;5.57;3.53;;;17.50;99.90;;;;;;5035613;28;20873;-86
2022/10/15 09:16:16;;;;;;;5.77;3.57;;;17.30;99.90;;;;;;5048097;28;20507;-86
2022/10/15 09:18:46;;;;;;;5.80;3.80;;;17.50;99.90;;;;;;5056451;28;20435;-85
2022/10/15 09:21:15;;;;;;;6.10;3.43;;;17.50;99.90;;;;;;5038988;28;20462;-86
2022/10/15 09:23:44;;;;;;;5.90;3.10;;;17.80;99.90;;;;;;5039755;28;20528;-86
2022/10/15 09:26:22;;;;;;;4.90;2.73;;;18.10;99.90;;;;;;5058129;28;20920;-86
2022/10/15 09:28:56;;;;;;;5.07;2.23;;;18.50;99.90;;;;;;5041461;28;20483;-85
2022/10/15 09:31:31;;;;;;;6.07;2.30;;;18.80;99.90;;;;;;5035315;28;20949;-85
2022/10/15 09:34:04;;;;;;;4.10;1.80;;;18.90;99.90;;;;;;5037657;28;20828;-87
2022/10/15 09:36:39;;;;;;;3.93;1.83;;;19.10;99.90;;;;;;5037930;28;20478;-86
2022/10/15 09:39:34;;;;;;;3.53;1.60;;;19.10;99.90;;;;;;5040804;28;20449;-86
2022/10/15 09:42:12;;;;;;;3.73;1.43;;;19.20;99.90;;;;;;5032834;28;20453;-86
2022/10/15 09:44:43;;;;;;;5.40;2.10;;;19.20;99.90;;;;;;5051950;28;20454;-86
2022/10/15 09:47:22;;;;;;;6.10;1.70;;;19.20;99.90;;;;;;5048358;28;20840;-86
2022/10/15 09:49:49;;;;;;;5.87;1.63;;;19.60;99.90;;;;;;5041544;28;20482;-87
2022/10/15 09:52:24;;;;;;;4.40;1.83;;;19.60;99.90;;;;;;5041836;28;20455;-87
2022/10/15 09:55:02;;;;;;;4.37;1.30;;;19.80;99.90;;;;;;5040633;28;20461;-87
2022/10/15 09:57:32;;;;;;;4.83;1.97;;;19.60;99.90;;;;;;5055534;28;20476;-86
2022/10/15 10:00:01;;;;;;;4.13;1.40;;;19.40;99.90;;;;;;5048911;28;20452;-87
2022/10/15 10:02:28;;;;;;;3.80;1.50;;;19.10;99.90;;;;;;5037552;28;20456;-87
2022/10/15 10:04:56;;;;;;;6.17;2.07;;;18.70;99.90;;;;;;5049915;28;20461;-86
2022/10/15 10:07:32;;;;;;;3.80;2.00;;;18.30;99.90;;;;;;5056028;28;20877;-86
2022/10/15 10:12:48;;;;;;;29.57;28.20;;;18.10;99.90;;;;;;4985157;28;20892;-88
2022/10/15 10:18:38;;;;;;;88.80;85.73;;;18.10;99.90;;;;;;4969554;28;20475;-86
2022/10/15 10:24:45;;;;;;;82.63;79.67;;;18.20;99.90;;;;;;5038981;28;20463;-88
2022/10/15 10:27:24;;;;;;;150.57;145.67;;;18.00;99.90;;;;;;5057872;28;20495;-88
2022/10/15 10:29:55;;;;;;;135.43;131.03;;;18.10;99.90;;;;;;5052342;28;20483;-87
2022/10/15 10:32:27;;;;;;;126.70;122.50;;;18.10;99.90;;;;;;5039696;28;20461;-87
2022/10/15 10:34:55;;;;;;;117.33;113.43;;;18.10;99.90;;;;;;5040358;28;20452;-86
2022/10/15 10:37:23;;;;;;;158.87;153.77;;;17.90;99.90;;;;;;5052443;28;20862;-87
2022/10/15 10:39:55;;;;;;;185.57;179.60;;;17.80;99.90;;;;;;5039229;28;20452;-85
2022/10/15 10:42:33;;;;;;;270.83;262.60;;;17.70;99.90;;;;;;5018443;28;20470;-87
2022/10/15 10:45:18;;;;;;;380.07;367.53;;;17.80;99.90;;;;;;5026664;28;20455;-87
2022/10/15 10:47:45;;;;;;;406.93;393.13;;;17.90;99.90;;;;;;5055491;28;20501;-86
2022/10/15 10:50:30;;;;;;;403.83;390.27;;;18.00;99.90;;;;;;5049908;28;20472;-87
2022/10/15 10:52:58;;;;;;;393.70;380.50;;;17.80;99.90;;;;;;5041582;28;20951;-86
2022/10/15 10:55:33;;;;;;;403.53;389.93;;;17.80;99.90;;;;;;5014035;28;20502;-88
2022/10/15 10:58:01;;;;;;;500.63;482.87;;;17.80;99.90;;;;;;5015254;28;20461;-87
2022/10/15 11:00:35;;;;;;;462.67;446.23;;;17.70;99.90;;;;;;5017767;28;20443;-87
2022/10/15 11:03:02;;;;;;;466.57;450.00;;;17.70;99.90;;;;;;5020021;28;20454;-87
2022/10/15 11:05:33;;;;;;;517.53;498.17;;;17.80;99.90;;;;;;5056735;28;20479;-87
2022/10/15 11:08:07;;;;;;;527.47;507.67;;;17.70;99.90;;;;;;5060443;28;20458;-88
2022/10/15 11:10:41;;;;;;;586.67;562.80;;;17.70;99.90;;;;;;5038290;28;20946;-87
2022/10/15 11:13:29;;;;;;;634.90;607.10;;;17.60;99.90;;;;;;5041515;28;20451;-86
2022/10/15 11:16:01;;;;;;;664.57;634.53;;;17.60;99.90;;;;;;5042963;28;20470;-87
2022/10/15 11:18:39;;;;;;;719.87;682.70;;;17.50;99.90;;;;;;5039537;28;20449;-87
2022/10/15 11:21:15;;;;;;;720.00;682.60;;;17.70;99.90;;;;;;5048704;28;20539;-86
2022/10/15 11:24:03;;;;;;;707.27;670.87;;;17.80;99.90;;;;;;5060036;28;20454;-88
2022/10/15 11:26:41;;;;;;;677.83;644.83;;;17.90;99.90;;;;;;5044230;28;20468;-88
2022/10/15 11:29:15;;;;;;;649.43;619.17;;;17.80;99.90;;;;;;5040322;28;20758;-87
2022/10/15 11:31:50;;;;;;;681.17;647.77;;;17.90;99.90;;;;;;5054980;28;20455;-87
2022/10/15 11:34:33;;;;;;;670.23;637.83;;;17.90;99.90;;;;;;5060087;28;20502;-88
2022/10/15 11:37:10;;;;;;;657.70;627.00;;;18.00;99.90;;;;;;5031406;28;20473;-86
2022/10/15 11:39:54;;;;;;;660.10;628.60;;;18.00;99.90;;;;;;5033296;28;20471;-86
2022/10/15 11:42:30;;;;;;;643.17;612.10;;;18.20;99.90;;;;;;5052323;28;20462;-86
2022/10/15 11:52:02;;;;;;;127.93;123.20;;;19.00;99.90;;;;;;5036861;28;20457;-87
2022/10/15 11:54:36;;;;;;;29.57;28.33;;;18.90;99.90;;;;;;5022530;28;20466;-86
2022/10/15 11:57:04;;;;;;;12.80;12.10;;;19.30;99.90;;;;;;5035666;28;20485;-87
2022/10/15 11:59:40;;;;;;;6.90;6.30;;;19.50;99.90;;;;;;5055652;28;21345;-85
2022/10/15 12:02:14;;;;;;;4.50;2.13;;;19.60;99.90;;;;;;5039998;28;20455;-87
2022/10/15 12:04:45;;;;;;;6.23;2.17;;;19.70;99.90;;;;;;5045726;28;20454;-88
2022/10/15 12:07:18;;;;;;;5.10;1.60;;;19.70;99.90;;;;;;5102950;22;20818;-84
2022/10/15 12:09:51;;;;;;;3.60;1.40;;;20.40;99.90;;;;;;5045179;28;20451;-84
2022/10/15 12:12:28;;;;;;;3.90;1.40;;;20.60;99.90;;;;;;5054812;28;20503;-84
2022/10/15 12:15:24;;;;;;;4.83;1.73;;;20.60;99.90;;;;;;5059094;28;20465;-84
2022/10/15 12:17:55;;;;;;;3.43;1.00;;;20.60;99.90;;;;;;5019654;28;20477;-84
2022/10/15 12:20:23;;;;;;;3.63;0.97;;;21.30;99.90;;;;;;5020463;28;20483;-84
2022/10/15 12:22:58;;;;;;;3.40;0.90;;;21.20;99.40;;;;;;5021145;28;20832;-84
2022/10/15 12:25:43;;;;;;;4.00;1.10;;;21.40;99.00;;;;;;5020139;28;20952;-85
2022/10/15 12:28:18;;;;;;;5.70;1.20;;;22.00;98.10;;;;;;5017799;28;20463;-84
2022/10/15 12:30:56;;;;;;;3.57;0.93;;;22.20;97.30;;;;;;5030139;28;20978;-84
2022/10/15 12:33:31;;;;;;;5.60;1.40;;;21.80;95.70;;;;;;5037885;28;20455;-84
2022/10/15 12:35:59;;;;;;;5.40;1.27;;;21.50;96.50;;;;;;5037974;28;20508;-85
2022/10/15 12:38:30;;;;;;;5.30;1.23;;;21.50;97.80;;;;;;5039569;28;20450;-84
2022/10/15 12:41:00;;;;;;;5.23;2.07;;;21.20;97.10;;;;;;5037561;28;20484;-84
2022/10/15 12:43:27;;;;;;;6.57;1.43;;;20.90;97.50;;;;;;5037575;28;20445;-85
2022/10/15 12:45:59;;;;;;;3.73;1.00;;;21.10;97.40;;;;;;5037391;28;20475;-83